This is the latest recevied weather packets stored in our database for station/object YB1DDK-2. If no packets are shown the sender has not sent any weather packets the latest 10 day(s).
| Time | Temp. | Humidity | Pressure | Rain* | Wind** | Luminosity | Snow |
|---|---|---|---|---|---|---|---|
| 1777951292 | 34.44° C | 56% | 1002 hPa | - | - | 0 W/m² | - |
| 1777949448 | 33.89° C | 60% | 1002 hPa | - | - | 0 W/m² | - |
| 1777948526 | 33.33° C | 63% | 1002 hPa | - | - | 0 W/m² | - |
| 1777947604 | 32.78° C | 65% | 1003 hPa | - | - | 0 W/m² | - |
| 1777946682 | 32.22° C | 67% | 1003 hPa | - | - | 0 W/m² | - |
| 1777945760 | 31.67° C | 72% | 1003 hPa | - | - | 0 W/m² | - |
| 1777944838 | 31.11° C | 76% | 1002 hPa | - | - | 0 W/m² | - |
| 1777943916 | 31.11° C | 77% | 1002 hPa | - | - | 0 W/m² | - |
| 1777942994 | 30.56° C | 78% | 1002 hPa | - | - | 0 W/m² | - |
| 1777942072 | 30.56° C | 77% | 1002 hPa | - | - | 0 W/m² | - |
| 1777941150 | 30.56° C | 76% | 1001 hPa | - | - | 0 W/m² | - |
| 1777940228 | 30.56° C | 77% | 1001 hPa | - | - | 0 W/m² | - |
| 1777939306 | 30° C | 75% | 1001 hPa | - | - | 0 W/m² | - |
| 1777938384 | 30° C | 75% | 1001 hPa | - | - | 0 W/m² | - |
| 1777937462 | 30° C | 78% | 1001 hPa | - | - | 0 W/m² | - |
| 1777936540 | 30° C | 77% | 1001 hPa | - | - | 0 W/m² | - |
| 1777935618 | 30° C | 77% | 1001 hPa | - | - | 0 W/m² | - |
| 1777934696 | 30° C | 77% | 1001 hPa | - | - | 0 W/m² | - |
| 1777933773 | 30° C | 77% | 1000 hPa | - | - | 0 W/m² | - |
| 1777932851 | 30° C | 76% | 1000 hPa | - | - | 0 W/m² | - |
| 1777931929 | 30° C | 77% | 1000 hPa | - | - | 0 W/m² | - |
| 1777931007 | 30° C | 76% | 1000 hPa | - | - | 0 W/m² | - |
| 1777930085 | 30.56° C | 75% | 1000 hPa | - | - | 0 W/m² | - |
| 1777929163 | 30.56° C | 76% | 1000 hPa | - | - | 0 W/m² | - |
| 1777928241 | 30.56° C | 76% | 1000 hPa | - | - | 0 W/m² | - |
* Rain since midnight (hover to see other rain measurements)
** Current wind speed in m/s (hover to see current wind gust speed)